createdAt,value
2022-10-22T00:00:36.847Z,98394.66
2022-10-22T00:03:04.136Z,98389.13
2022-10-22T00:05:31.049Z,98387.40
2022-10-22T00:07:58.152Z,98381.73
2022-10-22T00:10:25.118Z,98380.41
2022-10-22T00:12:52.229Z,98380.58
2022-10-22T00:15:19.116Z,98383.59
2022-10-22T00:17:47.133Z,98378.10
2022-10-22T00:20:14.367Z,98379.30
2022-10-22T00:22:41.301Z,98380.98
2022-10-22T00:25:08.787Z,98377.85
2022-10-22T00:27:35.698Z,98370.02
2022-10-22T00:30:02.570Z,98372.48
2022-10-22T00:32:29.502Z,98371.79
2022-10-22T00:34:56.463Z,98371.61
2022-10-22T00:37:23.423Z,98370.38
2022-10-22T00:39:50.445Z,98369.92
2022-10-22T00:42:19.929Z,98375.38
2022-10-22T00:45:05.357Z,98366.34
2022-10-22T00:47:39.887Z,98358.38
2022-10-22T00:50:09.850Z,98363.42
2022-10-22T00:52:36.814Z,98371.91
2022-10-22T00:55:04.704Z,98372.23
2022-10-22T00:57:31.628Z,98375.25
2022-10-22T00:59:58.604Z,98369.40
2022-10-22T01:02:25.509Z,98376.13
2022-10-22T01:04:52.646Z,98372.94
2022-10-22T01:07:22.199Z,98370.17
2022-10-22T01:10:17.000Z,98371.90
2022-10-22T01:12:45.971Z,98371.45
2022-10-22T01:15:17.053Z,98367.25
2022-10-22T01:18:05.562Z,98362.55
2022-10-22T01:20:35.585Z,98356.85
2022-10-22T01:23:24.276Z,98351.98
2022-10-22T01:25:59.263Z,98345.88
2022-10-22T01:28:54.057Z,98351.56
2022-10-22T01:31:20.949Z,98344.35
2022-10-22T01:33:47.806Z,98338.14
2022-10-22T01:36:15.290Z,98335.13
2022-10-22T01:38:42.306Z,98334.87
2022-10-22T01:41:09.181Z,98322.89
2022-10-22T01:43:36.031Z,98320.70
2022-10-22T01:46:04.615Z,98323.43
2022-10-22T01:48:34.528Z,98317.58
2022-10-22T01:51:08.034Z,98306.55
2022-10-22T01:56:31.290Z,98305.60
2022-10-22T01:58:58.294Z,98297.45
2022-10-22T02:01:45.884Z,98287.33
2022-10-22T02:04:44.761Z,98290.77
2022-10-22T02:07:12.939Z,98286.39
2022-10-22T02:09:39.941Z,98288.13
2022-10-22T02:12:07.334Z,98288.88
2022-10-22T02:14:34.576Z,98293.67
2022-10-22T02:17:01.558Z,98293.79
2022-10-22T02:19:35.903Z,98289.50
2022-10-22T02:22:03.053Z,98286.56
2022-10-22T02:24:29.965Z,98283.34
2022-10-22T02:27:08.978Z,98280.15
2022-10-22T02:29:46.416Z,98272.67
2022-10-22T02:32:16.378Z,98270.04
2022-10-22T02:34:43.508Z,98272.96
2022-10-22T02:37:10.426Z,98273.48
2022-10-22T02:39:37.288Z,98277.83
2022-10-22T02:42:04.332Z,98270.50
2022-10-22T02:44:31.385Z,98269.42
2022-10-22T02:46:58.347Z,98263.77
2022-10-22T02:49:25.462Z,98265.80
2022-10-22T02:51:52.416Z,98268.15
2022-10-22T02:54:19.288Z,98269.31
2022-10-22T02:56:46.228Z,98264.36
2022-10-22T02:59:13.141Z,98257.48
2022-10-22T03:01:40.037Z,98250.92
2022-10-22T03:04:07.087Z,98252.60
2022-10-22T03:06:34.057Z,98250.56
2022-10-22T03:09:01.036Z,98255.49
2022-10-22T03:11:28.245Z,98257.66
2022-10-22T03:13:55.109Z,98252.79
2022-10-22T03:16:22.061Z,98252.79
2022-10-22T03:18:48.987Z,98248.08
2022-10-22T03:21:50.352Z,98249.14
2022-10-22T03:24:22.923Z,98243.00
2022-10-22T03:26:50.939Z,98241.02
2022-10-22T03:29:17.909Z,98239.00
2022-10-22T03:31:44.790Z,98232.19
2022-10-22T03:34:13.521Z,98232.68
2022-10-22T03:36:41.000Z,98234.77
2022-10-22T03:39:07.982Z,98232.33
2022-10-22T03:41:35.018Z,98228.33
2022-10-22T03:44:02.122Z,98223.30
2022-10-22T03:46:29.084Z,98230.45
2022-10-22T03:48:56.368Z,98231.30
2022-10-22T03:51:23.364Z,98229.31
2022-10-22T03:53:50.265Z,98232.66
2022-10-22T03:56:17.104Z,98229.25
2022-10-22T03:58:43.999Z,98224.34
2022-10-22T04:01:12.505Z,98225.92
2022-10-22T04:03:39.753Z,98221.17
2022-10-22T04:06:08.794Z,98209.88
2022-10-22T04:08:36.118Z,98205.27
2022-10-22T04:11:03.072Z,98198.08
2022-10-22T04:13:30.058Z,98192.85
2022-10-22T04:15:57.068Z,98183.66
2022-10-22T04:18:23.955Z,98184.59
2022-10-22T04:20:51.843Z,98181.20
2022-10-22T04:23:18.764Z,98177.48
2022-10-22T04:25:45.643Z,98175.95
2022-10-22T04:28:12.532Z,98167.61
2022-10-22T04:30:39.503Z,98179.98
2022-10-22T04:33:06.354Z,98177.92
2022-10-22T04:35:33.272Z,98178.88
2022-10-22T04:38:00.689Z,98174.20
2022-10-22T04:40:27.597Z,98174.77
2022-10-22T04:42:54.426Z,98176.42
2022-10-22T04:45:21.381Z,98171.04
2022-10-22T04:47:48.277Z,98176.09
2022-10-22T04:50:15.272Z,98174.73
2022-10-22T04:52:42.370Z,98181.50
2022-10-22T04:55:09.488Z,98184.02
2022-10-22T04:57:36.369Z,98173.90
2022-10-22T05:00:03.884Z,98174.27
2022-10-22T05:02:30.734Z,98179.65
2022-10-22T05:04:57.584Z,98184.48
2022-10-22T05:07:24.505Z,98179.54
2022-10-22T05:09:51.575Z,98184.33
2022-10-22T05:12:18.516Z,98178.23
2022-10-22T05:14:45.423Z,98182.28
2022-10-22T05:17:12.536Z,98185.65
2022-10-22T05:19:39.402Z,98187.55
2022-10-22T05:22:06.360Z,98193.25
2022-10-22T05:24:33.941Z,98191.56
2022-10-22T05:27:00.812Z,98193.23
2022-10-22T05:29:27.874Z,98201.27
2022-10-22T05:31:54.919Z,98200.83
2022-10-22T05:34:21.852Z,98205.27
2022-10-22T05:36:48.784Z,98209.64
2022-10-22T05:39:18.103Z,98207.58
2022-10-22T05:41:45.130Z,98206.02
2022-10-22T05:44:12.385Z,98209.22
2022-10-22T05:46:39.329Z,98210.26
2022-10-22T05:49:06.969Z,98214.61
2022-10-22T05:51:34.807Z,98222.98
2022-10-22T05:54:03.622Z,98227.13
2022-10-22T05:56:32.098Z,98232.86
2022-10-22T05:58:59.561Z,98230.90
2022-10-22T06:01:28.498Z,98222.48
2022-10-22T06:03:59.673Z,98221.09
2022-10-22T06:06:35.697Z,98233.54
2022-10-22T06:09:11.342Z,98239.50
2022-10-22T06:11:38.318Z,98236.67
2022-10-22T06:14:05.310Z,98238.08
2022-10-22T06:16:32.411Z,98231.23
2022-10-22T06:18:59.639Z,98230.38
2022-10-22T06:21:26.538Z,98230.17
2022-10-22T06:23:58.456Z,98230.73
2022-10-22T06:26:25.424Z,98233.39
2022-10-22T06:28:52.344Z,98230.94
2022-10-22T06:31:19.325Z,98222.83
2022-10-22T06:33:46.180Z,98218.04
2022-10-22T06:36:17.543Z,98217.55
2022-10-22T06:38:44.433Z,98219.25
2022-10-22T06:41:13.537Z,98218.95
2022-10-22T06:43:41.247Z,98213.48
2022-10-22T06:46:14.829Z,98216.05
2022-10-22T06:48:48.098Z,98212.14
2022-10-22T06:51:15.032Z,98210.66
2022-10-22T06:53:42.029Z,98214.63
2022-10-22T06:56:13.923Z,98212.89
2022-10-22T06:58:40.945Z,98215.82
2022-10-22T07:01:09.844Z,98206.33
2022-10-22T07:03:37.737Z,98204.17
2022-10-22T07:06:06.521Z,98202.26
2022-10-22T07:08:33.773Z,98203.52
2022-10-22T07:11:11.069Z,98211.61
2022-10-22T07:13:38.267Z,98213.17
2022-10-22T07:16:06.357Z,98219.33
2022-10-22T07:18:35.960Z,98211.83
2022-10-22T07:21:03.160Z,98206.92
2022-10-22T07:23:30.048Z,98205.30
2022-10-22T07:28:30.063Z,98201.84
2022-10-22T07:30:56.915Z,98204.34
2022-10-22T07:33:23.789Z,98197.10
2022-10-22T07:35:50.749Z,98200.40
2022-10-22T07:38:17.641Z,98206.91
2022-10-22T07:40:44.626Z,98206.65
2022-10-22T07:43:11.822Z,98211.34
2022-10-22T07:45:38.688Z,98212.33
2022-10-22T07:48:06.015Z,98207.61
2022-10-22T07:50:32.961Z,98205.92
2022-10-22T07:53:00.006Z,98198.23
2022-10-22T07:55:26.912Z,98187.56
2022-10-22T07:57:53.862Z,98176.98
2022-10-22T08:00:23.223Z,98176.90
2022-10-22T08:02:52.276Z,98179.54
2022-10-22T08:05:19.377Z,98179.27
2022-10-22T08:07:46.468Z,98182.63
2022-10-22T08:10:13.824Z,98176.92
2022-10-22T08:12:40.929Z,98171.54
2022-10-22T08:15:08.789Z,98172.45
2022-10-22T08:17:36.071Z,98174.61
2022-10-22T08:20:03.611Z,98176.00
2022-10-22T08:22:30.613Z,98175.64
2022-10-22T08:24:57.575Z,98170.37
2022-10-22T08:27:24.515Z,98171.67
2022-10-22T08:29:51.441Z,98174.77
2022-10-22T08:32:18.544Z,98181.63
2022-10-22T08:34:45.569Z,98195.28
2022-10-22T08:37:14.481Z,98204.55
2022-10-22T08:39:41.683Z,98206.25
2022-10-22T08:42:36.585Z,98209.09
2022-10-22T08:45:25.042Z,98214.97
2022-10-22T08:48:01.624Z,98212.03
2022-10-22T08:50:38.561Z,98210.00
2022-10-22T08:53:08.284Z,98212.73
2022-10-22T08:55:37.411Z,98217.85
2022-10-22T08:58:17.630Z,98214.04
2022-10-22T09:01:09.608Z,98218.05
2022-10-22T09:03:57.706Z,98218.59
2022-10-22T09:06:25.911Z,98221.50
2022-10-22T09:08:53.386Z,98229.24
2022-10-22T09:11:32.334Z,98227.96
2022-10-22T09:13:59.554Z,98225.98
2022-10-22T09:16:41.854Z,98218.83
2022-10-22T09:19:19.768Z,98226.13
2022-10-22T09:21:55.696Z,98221.39
2022-10-22T09:24:44.877Z,98212.41
2022-10-22T09:27:16.766Z,98207.70
2022-10-22T09:29:43.934Z,98215.62
2022-10-22T09:32:10.928Z,98217.50
2022-10-22T09:34:38.069Z,98226.89
2022-10-22T09:37:49.854Z,98226.14
2022-10-22T09:40:17.197Z,98221.89
2022-10-22T09:42:46.254Z,98222.02
2022-10-22T09:45:21.761Z,98223.76
2022-10-22T09:48:04.248Z,98220.90
2022-10-22T09:51:29.682Z,98219.97
2022-10-22T09:54:28.007Z,98216.69
2022-10-22T09:57:22.440Z,98220.92
2022-10-22T10:03:33.993Z,98217.36
2022-10-22T10:06:06.036Z,98213.19
2022-10-22T10:08:36.617Z,98202.74
2022-10-22T10:11:08.435Z,98190.79
2022-10-22T10:14:01.185Z,98186.41
2022-10-22T10:16:41.244Z,98186.34
2022-10-22T10:19:31.020Z,98185.63
2022-10-22T10:22:16.393Z,98189.12
2022-10-22T10:25:09.399Z,98192.48
2022-10-22T10:28:18.072Z,98190.59
2022-10-22T10:30:56.999Z,98181.52
2022-10-22T10:33:34.491Z,98173.26
2022-10-22T10:36:04.813Z,98173.14
2022-10-22T10:38:32.078Z,98173.11
2022-10-22T10:41:16.111Z,98173.33
2022-10-22T10:43:49.409Z,98176.58
2022-10-22T10:46:25.875Z,98172.83
2022-10-22T10:48:57.095Z,98167.05
2022-10-22T10:51:46.702Z,98170.95
2022-10-22T10:54:48.899Z,98172.93
2022-10-22T10:57:32.193Z,98168.70
2022-10-22T11:00:07.783Z,98163.55
2022-10-22T11:03:06.019Z,98162.59
2022-10-22T11:05:42.797Z,98166.36
2022-10-22T11:08:20.409Z,98163.36
2022-10-22T11:11:09.223Z,98160.58
2022-10-22T11:13:41.459Z,98157.05
2022-10-22T11:16:30.688Z,98150.89
2022-10-22T11:19:04.531Z,98144.61
2022-10-22T11:21:36.655Z,98138.63
2022-10-22T11:24:23.571Z,98134.98
2022-10-22T11:26:53.896Z,98130.55
2022-10-22T11:29:25.628Z,98128.83
2022-10-22T11:31:55.053Z,98119.77
2022-10-22T11:34:37.588Z,98114.02
2022-10-22T11:37:04.611Z,98115.20
2022-10-22T11:39:39.440Z,98114.82
2022-10-22T11:42:10.156Z,98115.83
2022-10-22T11:44:59.043Z,98119.91
2022-10-22T11:47:27.819Z,98116.36
2022-10-22T11:50:37.587Z,98120.16
2022-10-22T11:53:07.942Z,98117.61
2022-10-22T11:55:51.670Z,98115.88
2022-10-22T11:58:39.772Z,98113.86
2022-10-22T12:01:10.131Z,98105.88
2022-10-22T12:04:00.082Z,98104.21
2022-10-22T12:06:27.847Z,98100.52
2022-10-22T12:08:55.073Z,98093.20
2022-10-22T12:11:23.929Z,98090.53
2022-10-22T12:14:02.408Z,98087.29
2022-10-22T12:16:50.948Z,98090.50
2022-10-22T12:19:22.715Z,98087.33
2022-10-22T12:21:58.773Z,98080.02
2022-10-22T12:24:26.328Z,98073.46
2022-10-22T12:26:53.377Z,98078.74
2022-10-22T12:29:23.770Z,98087.73
2022-10-22T12:31:50.853Z,98094.58
2022-10-22T12:34:19.640Z,98088.79
2022-10-22T12:36:47.709Z,98088.00
2022-10-22T12:39:16.967Z,98086.88
2022-10-22T12:41:44.259Z,98087.04
2022-10-22T12:44:16.428Z,98089.82
2022-10-22T12:46:44.843Z,98087.89
2022-10-22T12:49:20.555Z,98085.36
2022-10-22T12:51:48.115Z,98089.10
2022-10-22T12:54:28.537Z,98087.14
2022-10-22T12:56:56.137Z,98084.29
2022-10-22T12:59:37.223Z,98084.39
2022-10-22T13:02:27.163Z,98087.23
2022-10-22T13:05:12.748Z,98088.50
2022-10-22T13:07:41.506Z,98085.79
2022-10-22T13:10:19.058Z,98085.08
2022-10-22T13:12:50.322Z,98080.38
2022-10-22T13:15:34.965Z,98076.57
2022-10-22T13:18:22.599Z,98073.74
2022-10-22T13:21:03.395Z,98070.78
2022-10-22T13:23:32.156Z,98065.90
2022-10-22T13:26:15.191Z,98064.23
2022-10-22T13:28:42.293Z,98058.89
2022-10-22T13:31:17.354Z,98055.63
2022-10-22T13:33:46.068Z,98055.50
2022-10-22T13:36:16.262Z,98049.23
2022-10-22T13:38:43.522Z,98047.13
2022-10-22T13:41:25.124Z,98047.13
2022-10-22T13:43:52.457Z,98047.70
2022-10-22T13:46:19.537Z,98046.52
2022-10-22T13:48:47.275Z,98046.89
2022-10-22T13:51:16.367Z,98044.56
2022-10-22T13:53:44.001Z,98042.90
2022-10-22T13:56:18.906Z,98043.27
2022-10-22T13:58:46.622Z,98052.73
2022-10-22T14:01:20.662Z,98056.41
2022-10-22T14:03:49.111Z,98052.94
2022-10-22T14:06:17.285Z,98047.07
2022-10-22T14:08:45.932Z,98049.44
2022-10-22T14:11:13.126Z,98046.27
2022-10-22T14:13:40.279Z,98047.33
2022-10-22T14:16:08.033Z,98045.49
2022-10-22T14:18:35.080Z,98043.11
2022-10-22T14:21:07.776Z,98037.84
2022-10-22T14:23:36.405Z,98039.01
2022-10-22T14:26:03.701Z,98034.34
2022-10-22T14:28:34.122Z,98033.60
2022-10-22T14:31:10.909Z,98036.46
2022-10-22T14:33:37.948Z,98039.58
2022-10-22T14:36:05.364Z,98040.03
2022-10-22T14:38:32.553Z,98035.69
2022-10-22T14:40:59.910Z,98029.38
2022-10-22T14:43:28.390Z,98034.35
2022-10-22T14:45:55.538Z,98037.67
2022-10-22T14:48:22.509Z,98041.23
2022-10-22T14:50:49.531Z,98043.36
2022-10-22T14:53:17.112Z,98042.95
2022-10-22T14:55:44.854Z,98045.28
2022-10-22T14:58:12.642Z,98048.45
2022-10-22T15:00:43.132Z,98050.78
2022-10-22T15:03:10.918Z,98048.91
2022-10-22T15:05:44.592Z,98049.41
2022-10-22T15:08:12.479Z,98053.25
2022-10-22T15:10:40.360Z,98054.46
2022-10-22T15:13:07.564Z,98054.67
2022-10-22T15:15:39.679Z,98059.99
2022-10-22T15:18:07.530Z,98060.30
2022-10-22T15:20:34.573Z,98056.38
2022-10-22T15:23:01.621Z,98047.78
2022-10-22T15:25:28.975Z,98042.88
2022-10-22T15:28:00.780Z,98050.89
2022-10-22T15:30:34.744Z,98054.60
2022-10-22T15:33:02.201Z,98056.91
2022-10-22T15:35:29.162Z,98051.89
2022-10-22T15:37:56.192Z,98053.96
2022-10-22T15:40:23.158Z,98050.34
2022-10-22T15:42:50.393Z,98055.36
2022-10-22T15:45:17.488Z,98055.61
2022-10-22T15:47:48.362Z,98060.85
2022-10-22T15:50:15.728Z,98061.08
2022-10-22T15:52:42.775Z,98059.09
2022-10-22T15:55:10.821Z,98066.83
2022-10-22T15:57:39.022Z,98069.89
2022-10-22T16:00:07.645Z,98071.48
2022-10-22T16:02:39.370Z,98071.22
2022-10-22T16:05:07.222Z,98076.89
2022-10-22T16:07:34.276Z,98079.25
2022-10-22T16:10:01.980Z,98079.91
2022-10-22T16:12:28.996Z,98082.72
2022-10-22T16:14:56.043Z,98081.39
2022-10-22T16:17:23.599Z,98085.70
2022-10-22T16:19:50.876Z,98085.52
2022-10-22T16:22:17.894Z,98089.27
2022-10-22T16:24:45.144Z,98095.17
2022-10-22T16:27:12.192Z,98099.51
2022-10-22T16:29:39.919Z,98103.42
2022-10-22T16:32:07.715Z,98106.13
2022-10-22T16:34:34.763Z,98108.23
2022-10-22T16:37:02.732Z,98112.29
2022-10-22T16:39:29.716Z,98114.80
2022-10-22T16:41:56.728Z,98123.27
2022-10-22T16:44:23.959Z,98127.01
2022-10-22T16:46:51.023Z,98133.67
2022-10-22T16:49:18.071Z,98135.02
2022-10-22T16:51:45.118Z,98135.16
2022-10-22T16:54:12.667Z,98137.52
2022-10-22T16:56:39.983Z,98138.88
2022-10-22T16:59:07.000Z,98140.06
2022-10-22T17:01:37.878Z,98143.20
2022-10-22T17:04:07.640Z,98144.27
2022-10-22T17:06:34.702Z,98141.27
2022-10-22T17:09:01.778Z,98145.02
2022-10-22T17:11:35.199Z,98144.73
2022-10-22T17:14:06.262Z,98153.63
2022-10-22T17:16:33.303Z,98150.77
2022-10-22T17:19:00.567Z,98146.83
2022-10-22T17:21:27.679Z,98143.81
2022-10-22T17:23:56.804Z,98142.69
2022-10-22T17:26:24.155Z,98143.48
2022-10-22T17:28:51.201Z,98134.33
2022-10-22T17:31:23.172Z,98133.37
2022-10-22T17:33:51.340Z,98135.89
2022-10-22T17:36:18.795Z,98136.83
2022-10-22T17:38:48.367Z,98136.62
2022-10-22T17:41:20.125Z,98135.23
2022-10-22T17:43:55.524Z,98136.85
2022-10-22T17:46:24.759Z,98129.59
2022-10-22T17:48:55.942Z,98125.48
2022-10-22T17:51:23.311Z,98124.35
2022-10-22T17:53:50.811Z,98124.48
2022-10-22T17:56:20.272Z,98121.42
2022-10-22T17:58:47.310Z,98115.76
2022-10-22T18:01:25.622Z,98109.83
2022-10-22T18:03:53.601Z,98108.39
2022-10-22T18:06:20.727Z,98107.63
2022-10-22T18:08:47.804Z,98108.54
2022-10-22T18:11:17.524Z,98107.33
2022-10-22T18:13:44.672Z,98108.31
2022-10-22T18:16:11.734Z,98108.50
2022-10-22T18:18:38.705Z,98115.09
2022-10-22T18:21:05.829Z,98117.43
2022-10-22T18:23:33.513Z,98118.02
2022-10-22T18:26:00.976Z,98119.70
2022-10-22T18:28:27.926Z,98116.70
2022-10-22T18:30:54.892Z,98111.70
2022-10-22T18:33:24.149Z,98109.95
2022-10-22T18:35:52.711Z,98116.17
2022-10-22T18:38:23.094Z,98115.98
2022-10-22T18:40:50.225Z,98110.58
2022-10-22T18:43:18.392Z,98112.26
2022-10-22T18:45:46.329Z,98113.02
2022-10-22T18:48:13.791Z,98118.54
2022-10-22T18:50:40.744Z,98122.51
2022-10-22T18:53:07.755Z,98119.18
2022-10-22T18:55:35.315Z,98117.77
2022-10-22T18:58:02.225Z,98119.13
2022-10-22T19:00:29.771Z,98117.73
2022-10-22T19:02:56.715Z,98117.95
2022-10-22T19:05:23.593Z,98118.36
2022-10-22T19:07:50.584Z,98116.48
2022-10-22T19:10:17.794Z,98121.48
2022-10-22T19:12:44.635Z,98119.25
2022-10-22T19:15:11.850Z,98117.96
2022-10-22T19:17:39.051Z,98119.35
2022-10-22T19:20:06.648Z,98115.84
2022-10-22T19:22:33.562Z,98115.20
2022-10-22T19:25:00.506Z,98113.11
2022-10-22T19:27:31.796Z,98109.52
2022-10-22T19:29:58.868Z,98109.91
2022-10-22T19:32:28.813Z,98113.73
2022-10-22T19:34:57.785Z,98119.05
2022-10-22T19:37:24.731Z,98113.21
2022-10-22T19:39:51.615Z,98116.98
2022-10-22T19:42:18.564Z,98116.21
2022-10-22T19:44:45.510Z,98117.32
2022-10-22T19:47:12.449Z,98118.92
2022-10-22T19:49:39.350Z,98116.48
2022-10-22T19:52:06.349Z,98116.61
2022-10-22T19:54:33.424Z,98117.78
2022-10-22T19:57:00.408Z,98120.59
2022-10-22T20:02:06.602Z,98119.26
2022-10-22T20:04:45.620Z,98118.93
2022-10-22T20:07:15.001Z,98119.29
2022-10-22T20:09:42.690Z,98120.98
2022-10-22T20:12:19.202Z,98117.71
2022-10-22T20:14:46.680Z,98115.83
2022-10-22T20:17:13.625Z,98113.09
2022-10-22T20:19:40.627Z,98110.80
2022-10-22T20:22:07.818Z,98112.58
2022-10-22T20:24:34.761Z,98106.98
2022-10-22T20:27:01.823Z,98105.66
2022-10-22T20:29:28.851Z,98099.77
2022-10-22T20:31:55.902Z,98102.13
2022-10-22T20:34:22.806Z,98097.19
2022-10-22T20:36:49.906Z,98099.45
2022-10-22T20:39:17.039Z,98096.59
2022-10-22T20:41:44.193Z,98092.30
2022-10-22T20:44:13.391Z,98092.29
2022-10-22T20:46:40.434Z,98089.67
2022-10-22T20:49:13.300Z,98091.91
2022-10-22T20:51:40.467Z,98089.63
2022-10-22T20:54:07.738Z,98086.79
2022-10-22T20:56:35.996Z,98085.03
2022-10-22T20:59:08.168Z,98084.38
2022-10-22T21:01:38.281Z,98081.58
2022-10-22T21:04:05.534Z,98078.72
2022-10-22T21:06:32.786Z,98077.05
2022-10-22T21:08:59.937Z,98075.97
2022-10-22T21:11:27.087Z,98070.43
2022-10-22T21:13:54.134Z,98069.94
2022-10-22T21:16:21.384Z,98071.98
2022-10-22T21:18:48.637Z,98072.67
2022-10-22T21:21:17.734Z,98066.63
2022-10-22T21:23:44.983Z,98071.09
2022-10-22T21:26:12.137Z,98070.08
2022-10-22T21:28:39.310Z,98068.46
2022-10-22T21:31:08.683Z,98067.47
2022-10-22T21:33:39.318Z,98067.32
2022-10-22T21:36:07.090Z,98063.92
2022-10-22T21:38:34.432Z,98062.05
2022-10-22T21:41:05.576Z,98064.17
2022-10-22T21:43:32.554Z,98059.42
2022-10-22T21:46:07.964Z,98058.41
2022-10-22T21:48:36.754Z,98053.36
2022-10-22T21:51:08.123Z,98047.09
2022-10-22T21:55:14.405Z,98049.45
2022-10-22T21:57:41.846Z,98055.00
2022-10-22T22:00:10.107Z,98053.30
2022-10-22T22:02:46.165Z,98053.48
2022-10-22T22:05:13.116Z,98052.59
2022-10-22T22:07:40.771Z,98056.26
2022-10-22T22:10:08.535Z,98056.63
2022-10-22T22:12:35.480Z,98048.83
2022-10-22T22:15:02.540Z,98050.60
2022-10-22T22:17:29.502Z,98049.89
2022-10-22T22:19:56.930Z,98052.45
2022-10-22T22:22:24.430Z,98050.26
2022-10-22T22:24:51.432Z,98051.70
2022-10-22T22:29:45.608Z,98043.52
2022-10-22T22:32:16.070Z,98047.14
2022-10-22T22:34:43.206Z,98050.75
2022-10-22T22:37:10.254Z,98050.27
2022-10-22T22:39:37.302Z,98049.54
2022-10-22T22:42:04.655Z,98043.97
2022-10-22T22:44:31.707Z,98048.23
2022-10-22T22:46:59.161Z,98050.15
2022-10-22T22:49:26.209Z,98055.31
2022-10-22T22:51:53.253Z,98056.00
2022-10-22T22:54:20.220Z,98059.04
2022-10-22T22:56:49.704Z,98057.74
2022-10-22T22:59:16.853Z,98062.78
2022-10-22T23:01:45.570Z,98061.96
2022-10-22T23:04:16.577Z,98064.39
2022-10-22T23:06:43.543Z,98066.77
2022-10-22T23:09:14.730Z,98070.38
2022-10-22T23:11:42.224Z,98073.38
2022-10-22T23:14:11.225Z,98078.89
2022-10-22T23:16:40.826Z,98083.37
2022-10-22T23:19:08.078Z,98084.34
2022-10-22T23:21:37.862Z,98087.00
2022-10-22T23:24:07.468Z,98086.54
2022-10-22T23:26:36.702Z,98093.80
2022-10-22T23:29:05.293Z,98099.83
2022-10-22T23:31:32.334Z,98104.28
2022-10-22T23:33:59.374Z,98109.98
2022-10-22T23:36:26.529Z,98110.91
2022-10-22T23:38:54.797Z,98118.45
2022-10-22T23:41:22.186Z,98120.88
2022-10-22T23:43:50.335Z,98128.48
2022-10-22T23:46:17.473Z,98132.52
2022-10-22T23:48:49.243Z,98135.83
2022-10-22T23:51:17.001Z,98134.81
2022-10-22T23:53:44.991Z,98137.92
2022-10-22T23:56:16.102Z,98141.80
2022-10-22T23:58:43.412Z,98142.74
